createdAt,value
2022-08-24T00:01:36.135Z,101516.56
2022-08-24T00:04:22.946Z,101513.88
2022-08-24T00:07:23.717Z,101515.06
2022-08-24T00:10:15.559Z,101521.47
2022-08-24T00:13:07.568Z,101516.06
2022-08-24T00:15:56.117Z,101517.94
2022-08-24T00:18:47.132Z,101517.13
2022-08-24T00:21:34.119Z,101516.44
2022-08-24T00:24:21.190Z,101517.06
2022-08-24T00:27:08.651Z,101526.94
2022-08-24T00:29:57.196Z,101526.19
2022-08-24T00:32:44.202Z,101532.59
2022-08-24T00:35:31.203Z,101508.88
2022-08-24T00:38:17.880Z,101522.84
2022-08-24T00:41:05.954Z,101527.44
2022-08-24T00:43:58.435Z,101515.09
2022-08-24T00:46:51.974Z,101513.34
2022-08-24T00:49:43.376Z,101516.88
2022-08-24T00:52:34.053Z,101509.69
2022-08-24T00:55:24.508Z,101503.78
2022-08-24T00:58:17.015Z,101517.00
2022-08-24T01:01:06.989Z,101519.03
2022-08-24T01:03:58.222Z,101515.59
2022-08-24T01:06:46.288Z,101524.53
2022-08-24T01:09:33.309Z,101517.38
2022-08-24T01:12:19.920Z,101523.56
2022-08-24T01:15:10.538Z,101518.06
2022-08-24T01:18:15.116Z,101532.09
2022-08-24T01:21:15.893Z,101524.09
2022-08-24T01:24:05.848Z,101520.56
2022-08-24T01:26:52.849Z,101508.06
2022-08-24T01:29:42.075Z,101496.00
2022-08-24T01:32:29.271Z,101523.97
2022-08-24T01:35:15.957Z,101523.78
2022-08-24T01:38:07.807Z,101518.19
2022-08-24T01:41:00.707Z,101525.81
2022-08-24T01:43:47.652Z,101523.88
2022-08-24T01:46:34.926Z,101511.78
2022-08-24T01:49:24.017Z,101530.97
2022-08-24T01:52:13.225Z,101539.59
2022-08-24T01:55:00.599Z,101534.25
2022-08-24T01:57:48.883Z,101534.06
2022-08-24T02:00:37.799Z,101531.53
2022-08-24T02:03:29.532Z,101534.19
2022-08-24T02:06:19.810Z,101527.78
2022-08-24T02:09:07.700Z,101535.00
2022-08-24T02:11:55.249Z,101536.72
2022-08-24T02:14:44.390Z,101530.06
2022-08-24T02:17:31.829Z,101529.47
2022-08-24T02:20:19.127Z,101527.91
2022-08-24T02:23:07.221Z,101517.34
2022-08-24T02:25:54.035Z,101528.09
2022-08-24T02:28:41.122Z,101520.41
2022-08-24T02:31:29.536Z,101522.53
2022-08-24T02:34:16.341Z,101522.84
2022-08-24T02:37:04.281Z,101527.38
2022-08-24T02:39:50.749Z,101522.22
2022-08-24T02:42:39.576Z,101529.25
2022-08-24T02:45:26.775Z,101527.75
2022-08-24T02:48:15.213Z,101525.88
2022-08-24T02:51:01.768Z,101527.03
2022-08-24T02:53:49.146Z,101525.16
2022-08-24T02:56:37.264Z,101513.34
2022-08-24T02:59:24.784Z,101519.19
2022-08-24T03:02:11.919Z,101527.81
2022-08-24T03:05:00.016Z,101520.06
2022-08-24T03:07:46.954Z,101516.81
2022-08-24T03:10:34.375Z,101516.19
2022-08-24T03:13:22.099Z,101524.25
2022-08-24T03:16:08.960Z,101514.63
2022-08-24T03:18:56.042Z,101517.38
2022-08-24T03:21:45.820Z,101518.28
2022-08-24T03:24:32.473Z,101514.81
2022-08-24T03:27:19.983Z,101518.13
2022-08-24T03:30:09.718Z,101507.38
2022-08-24T03:32:56.408Z,101506.50
2022-08-24T03:35:43.217Z,101504.41
2022-08-24T03:38:34.679Z,101511.25
2022-08-24T03:41:21.575Z,101516.19
2022-08-24T03:44:08.783Z,101516.16
2022-08-24T03:46:56.625Z,101515.91
2022-08-24T03:49:46.025Z,101511.34
2022-08-24T03:52:34.049Z,101517.69
2022-08-24T03:55:22.826Z,101518.38
2022-08-24T03:58:09.332Z,101525.31
2022-08-24T04:00:56.136Z,101523.66
2022-08-24T04:03:45.712Z,101528.38
2022-08-24T04:06:33.587Z,101525.59
2022-08-24T04:09:20.989Z,101531.16
2022-08-24T04:12:09.993Z,101527.19
2022-08-24T04:14:57.028Z,101535.44
2022-08-24T04:17:45.270Z,101540.78
2022-08-24T04:20:32.195Z,101550.59
2022-08-24T04:23:19.182Z,101539.91
2022-08-24T04:26:06.294Z,101548.38
2022-08-24T04:28:55.970Z,101544.97
2022-08-24T04:31:44.266Z,101547.63
2022-08-24T04:34:31.428Z,101551.09
2022-08-24T04:37:18.500Z,101551.66
2022-08-24T04:40:13.924Z,101546.38
2022-08-24T04:43:06.335Z,101556.06
2022-08-24T04:45:55.561Z,101552.34
2022-08-24T04:48:44.674Z,101556.25
2022-08-24T04:51:36.362Z,101557.31
2022-08-24T04:54:24.874Z,101567.88
2022-08-24T04:57:25.606Z,101566.75
2022-08-24T05:00:13.949Z,101567.34
2022-08-24T05:03:05.159Z,101568.63
2022-08-24T05:05:53.015Z,101569.56
2022-08-24T05:08:39.809Z,101575.53
2022-08-24T05:11:26.920Z,101572.16
2022-08-24T05:14:13.961Z,101579.53
2022-08-24T05:17:00.801Z,101580.72
2022-08-24T05:19:52.090Z,101584.53
2022-08-24T05:22:39.357Z,101587.00
2022-08-24T05:25:26.222Z,101588.94
2022-08-24T05:28:13.417Z,101597.69
2022-08-24T05:31:09.225Z,101602.84
2022-08-24T05:33:56.861Z,101593.03
2022-08-24T05:36:45.492Z,101599.16
2022-08-24T05:39:41.325Z,101596.50
2022-08-24T05:42:28.642Z,101597.25
2022-08-24T05:45:16.151Z,101596.72
2022-08-24T05:48:03.806Z,101602.94
2022-08-24T05:51:10.864Z,101601.50
2022-08-24T05:54:09.856Z,101602.88
2022-08-24T05:57:08.546Z,101606.56
2022-08-24T06:00:01.999Z,101606.09
2022-08-24T06:02:52.983Z,101608.25
2022-08-24T06:05:42.316Z,101608.31
2022-08-24T06:08:30.137Z,101602.50
2022-08-24T06:11:29.770Z,101600.19
2022-08-24T06:14:23.883Z,101603.16
2022-08-24T06:17:18.696Z,101602.81
2022-08-24T06:20:07.466Z,101610.50
2022-08-24T06:22:53.903Z,101608.31
2022-08-24T06:26:00.126Z,101609.38
2022-08-24T06:28:48.235Z,101615.56
2022-08-24T06:31:39.832Z,101610.13
2022-08-24T06:34:28.938Z,101608.31
2022-08-24T06:37:16.771Z,101610.31
2022-08-24T06:40:05.298Z,101611.59
2022-08-24T06:42:54.421Z,101613.69
2022-08-24T06:45:53.615Z,101615.84
2022-08-24T06:48:43.100Z,101616.09
2022-08-24T06:51:31.904Z,101619.88
2022-08-24T06:54:20.897Z,101622.22
2022-08-24T06:57:08.310Z,101630.03
2022-08-24T06:59:55.256Z,101633.59
2022-08-24T07:02:43.187Z,101639.59
2022-08-24T07:05:30.278Z,101637.31
2022-08-24T07:08:52.523Z,101638.44
2022-08-24T07:11:39.388Z,101641.53
2022-08-24T07:14:26.268Z,101640.41
2022-08-24T07:17:13.031Z,101647.34
2022-08-24T07:20:01.563Z,101645.69
2022-08-24T07:23:08.175Z,101652.00
2022-08-24T07:25:56.178Z,101651.94
2022-08-24T07:28:45.556Z,101653.59
2022-08-24T07:31:35.516Z,101646.41
2022-08-24T07:34:31.203Z,101650.38
2022-08-24T07:37:20.585Z,101653.22
2022-08-24T07:40:09.889Z,101657.03
2022-08-24T07:42:59.049Z,101656.84
2022-08-24T07:45:46.044Z,101655.28
2022-08-24T07:48:32.899Z,101656.94
2022-08-24T07:51:20.771Z,101654.63
2022-08-24T07:54:13.218Z,101665.66
2022-08-24T07:57:04.572Z,101659.97
2022-08-24T07:59:52.507Z,101668.28
2022-08-24T08:02:39.312Z,101667.00
2022-08-24T08:05:26.753Z,101672.78
2022-08-24T08:08:15.523Z,101670.78
2022-08-24T08:11:04.984Z,101668.78
2022-08-24T08:13:51.894Z,101670.38
2022-08-24T08:16:39.311Z,101670.88
2022-08-24T08:19:26.013Z,101669.66
2022-08-24T08:22:35.531Z,101666.00
2022-08-24T08:25:44.406Z,101668.09
2022-08-24T08:28:43.302Z,101670.84
2022-08-24T08:31:30.201Z,101663.94
2022-08-24T08:34:21.735Z,101662.91
2022-08-24T08:37:08.755Z,101667.66
2022-08-24T08:39:55.900Z,101668.69
2022-08-24T08:43:01.444Z,101667.53
2022-08-24T08:46:08.422Z,101672.19
2022-08-24T08:49:45.894Z,101670.47
2022-08-24T08:53:06.184Z,101684.16
2022-08-24T08:56:03.433Z,101688.22
2022-08-24T08:59:01.676Z,101687.44
2022-08-24T09:02:26.979Z,101686.28
2022-08-24T09:06:00.730Z,101690.91
2022-08-24T09:09:12.237Z,101688.69
2022-08-24T09:12:10.041Z,101685.13
2022-08-24T09:15:12.022Z,101676.47
2022-08-24T09:18:18.079Z,101685.72
2022-08-24T09:21:16.828Z,101681.47
2022-08-24T09:24:37.960Z,101688.13
2022-08-24T09:27:50.410Z,101690.91
2022-08-24T09:30:57.860Z,101694.47
2022-08-24T09:33:57.370Z,101689.94
2022-08-24T09:36:53.985Z,101683.41
2022-08-24T09:40:01.985Z,101688.78
2022-08-24T09:43:21.034Z,101688.53
2022-08-24T09:46:39.296Z,101682.47
2022-08-24T09:50:00.685Z,101691.19
2022-08-24T09:53:26.483Z,101685.75
2022-08-24T09:56:25.887Z,101685.34
2022-08-24T09:59:52.620Z,101686.31
2022-08-24T10:03:02.795Z,101677.50
2022-08-24T10:06:08.341Z,101683.75
2022-08-24T10:09:24.019Z,101678.88
2022-08-24T10:12:22.860Z,101671.22
2022-08-24T10:15:11.664Z,101679.22
2022-08-24T10:18:13.584Z,101673.28
2022-08-24T10:21:28.705Z,101671.09
2022-08-24T10:24:30.928Z,101663.56
2022-08-24T10:27:47.928Z,101659.34
2022-08-24T10:30:48.448Z,101661.75
2022-08-24T10:33:46.131Z,101664.31
2022-08-24T10:36:49.443Z,101659.13
2022-08-24T10:40:15.787Z,101657.91
2022-08-24T10:43:37.566Z,101645.81
2022-08-24T10:46:46.664Z,101649.53
2022-08-24T10:50:02.571Z,101649.47
2022-08-24T10:53:04.742Z,101659.22
2022-08-24T10:56:19.177Z,101655.19
2022-08-24T10:59:19.866Z,101644.19
2022-08-24T11:02:28.871Z,101637.66
2022-08-24T11:05:29.699Z,101644.84
2022-08-24T11:08:23.732Z,101637.84
2022-08-24T11:11:13.239Z,101608.00
2022-08-24T11:14:03.022Z,101630.25
2022-08-24T11:16:52.581Z,101626.28
2022-08-24T11:19:42.624Z,101628.94
2022-08-24T11:22:33.138Z,101631.97
2022-08-24T11:25:26.740Z,101622.06
2022-08-24T11:28:21.732Z,101623.03
2022-08-24T11:31:12.604Z,101630.06
2022-08-24T11:34:03.679Z,101627.31
2022-08-24T11:36:50.261Z,101622.63
2022-08-24T11:39:38.944Z,101623.63
2022-08-24T11:42:39.542Z,101623.25
2022-08-24T11:45:35.467Z,101620.06
2022-08-24T11:48:36.207Z,101617.72
2022-08-24T11:51:36.209Z,101610.56
2022-08-24T11:54:37.267Z,101606.88
2022-08-24T11:57:36.092Z,101611.81
2022-08-24T12:00:27.011Z,101610.56
2022-08-24T12:03:31.072Z,101612.41
2022-08-24T12:06:35.927Z,101614.38
2022-08-24T12:09:34.065Z,101615.75
2022-08-24T12:12:28.707Z,101613.16
2022-08-24T12:15:25.753Z,101611.47
2022-08-24T12:18:28.294Z,101613.28
2022-08-24T12:21:16.993Z,101618.94
2022-08-24T12:24:08.974Z,101620.03
2022-08-24T12:27:00.790Z,101614.50
2022-08-24T12:29:53.426Z,101616.72
2022-08-24T12:32:44.069Z,101614.75
2022-08-24T12:35:35.287Z,101599.75
2022-08-24T12:38:27.842Z,101608.13
2022-08-24T12:41:20.295Z,101606.41
2022-08-24T12:44:12.574Z,101609.97
2022-08-24T12:46:59.452Z,101607.38
2022-08-24T12:49:52.559Z,101606.25
2022-08-24T12:53:14.329Z,101604.28
2022-08-24T12:56:34.765Z,101603.31
2022-08-24T12:59:25.420Z,101594.34
2022-08-24T13:02:31.160Z,101597.03
2022-08-24T13:05:21.601Z,101600.81
2022-08-24T13:08:15.603Z,101589.41
2022-08-24T13:11:06.426Z,101595.38
2022-08-24T13:14:17.559Z,101603.72
2022-08-24T13:17:14.256Z,101595.56
2022-08-24T13:20:18.832Z,101611.47
2022-08-24T13:23:16.102Z,101608.19
2022-08-24T13:26:24.427Z,101606.63
2022-08-24T13:29:11.818Z,101607.00
2022-08-24T13:32:00.281Z,101610.56
2022-08-24T13:34:49.383Z,101609.84
2022-08-24T13:37:36.738Z,101615.00
2022-08-24T13:40:28.031Z,101617.22
2022-08-24T13:43:21.231Z,101616.97
2022-08-24T13:46:20.357Z,101595.66
2022-08-24T13:49:22.653Z,101611.16
2022-08-24T13:52:20.183Z,101604.66
2022-08-24T13:55:23.454Z,101611.28
2022-08-24T13:58:23.734Z,101606.00
2022-08-24T14:01:30.779Z,101611.41
2022-08-24T14:04:38.085Z,101602.84
2022-08-24T14:07:31.121Z,101610.53
2022-08-24T14:10:35.000Z,101603.50
2022-08-24T14:13:36.605Z,101604.25
2022-08-24T14:16:56.150Z,101609.66
2022-08-24T14:19:51.014Z,101598.66
2022-08-24T14:22:51.499Z,101595.75
2022-08-24T14:25:39.100Z,101593.13
2022-08-24T14:28:45.425Z,101596.16
2022-08-24T14:31:32.752Z,101594.03
2022-08-24T14:34:32.807Z,101593.78
2022-08-24T14:37:23.934Z,101603.66
2022-08-24T14:40:21.271Z,101590.19
2022-08-24T14:43:28.550Z,101598.13
2022-08-24T14:46:29.145Z,101596.66
2022-08-24T14:49:29.715Z,101592.06
2022-08-24T14:52:41.999Z,101593.56
2022-08-24T14:55:35.614Z,101584.31
2022-08-24T14:58:35.834Z,101593.69
2022-08-24T15:01:47.002Z,101592.19
2022-08-24T15:04:41.244Z,101588.38
2022-08-24T15:07:31.790Z,101577.63
2022-08-24T15:10:24.900Z,101581.19
2022-08-24T15:13:14.855Z,101585.88
2022-08-24T15:16:06.045Z,101586.88
2022-08-24T15:19:03.544Z,101569.19
2022-08-24T15:21:57.332Z,101568.22
2022-08-24T15:24:48.370Z,101573.16
2022-08-24T15:27:43.848Z,101573.22
2022-08-24T15:30:34.513Z,101574.75
2022-08-24T15:33:21.640Z,101586.38
2022-08-24T15:36:12.782Z,101580.06
2022-08-24T15:38:59.728Z,101574.28
2022-08-24T15:41:47.239Z,101572.03
2022-08-24T15:44:34.418Z,101577.03
2022-08-24T15:47:27.986Z,101573.31
2022-08-24T15:50:25.424Z,101571.72
2022-08-24T15:53:30.695Z,101574.19
2022-08-24T15:56:36.020Z,101570.19
2022-08-24T15:59:28.131Z,101570.81
2022-08-24T16:02:33.393Z,101565.91
2022-08-24T16:05:36.365Z,101576.75
2022-08-24T16:08:25.025Z,101577.16
2022-08-24T16:11:41.960Z,101573.31
2022-08-24T16:14:31.112Z,101576.03
2022-08-24T16:17:37.101Z,101582.34
2022-08-24T16:20:33.191Z,101583.34
2022-08-24T16:23:27.234Z,101585.19
2022-08-24T16:26:26.641Z,101578.28
2022-08-24T16:29:46.161Z,101576.81
2022-08-24T16:32:49.778Z,101573.38
2022-08-24T16:35:40.062Z,101580.72
2022-08-24T16:38:29.408Z,101574.06
2022-08-24T16:41:19.505Z,101581.22
2022-08-24T16:44:06.236Z,101584.91
2022-08-24T16:46:53.018Z,101577.63
2022-08-24T16:49:40.401Z,101573.09
2022-08-24T16:52:27.413Z,101579.59
2022-08-24T16:55:15.256Z,101578.97
2022-08-24T16:58:02.915Z,101581.56
2022-08-24T17:00:49.623Z,101585.72
2022-08-24T17:03:36.244Z,101584.22
2022-08-24T17:06:23.251Z,101584.31
2022-08-24T17:09:09.932Z,101584.78
2022-08-24T17:11:58.422Z,101585.28
2022-08-24T17:14:45.300Z,101588.69
2022-08-24T17:17:31.985Z,101600.34
2022-08-24T17:20:19.084Z,101596.38
2022-08-24T17:23:06.086Z,101604.72
2022-08-24T17:25:54.034Z,101597.19
2022-08-24T17:28:47.199Z,101595.97
2022-08-24T17:31:34.245Z,101598.16
2022-08-24T17:34:22.080Z,101594.59
2022-08-24T17:37:11.528Z,101606.66
2022-08-24T17:39:59.693Z,101591.47
2022-08-24T17:42:51.275Z,101611.38
2022-08-24T17:45:39.699Z,101618.00
2022-08-24T17:48:27.965Z,101624.47
2022-08-24T17:51:15.257Z,101621.06
2022-08-24T17:54:01.988Z,101625.72
2022-08-24T17:56:51.088Z,101626.28
2022-08-24T17:59:38.644Z,101626.91
2022-08-24T18:02:26.773Z,101630.28
2022-08-24T18:05:14.945Z,101626.16
2022-08-24T18:08:03.340Z,101638.09
2022-08-24T18:10:49.660Z,101643.38
2022-08-24T18:13:37.188Z,101634.41
2022-08-24T18:16:27.685Z,101642.38
2022-08-24T18:19:16.070Z,101653.00
2022-08-24T18:22:04.560Z,101650.78
2022-08-24T18:24:51.288Z,101655.31
2022-08-24T18:27:38.143Z,101651.56
2022-08-24T18:30:31.356Z,101655.63
2022-08-24T18:33:21.077Z,101658.06
2022-08-24T18:36:09.790Z,101665.69
2022-08-24T18:38:56.585Z,101665.50
2022-08-24T18:41:49.365Z,101673.13
2022-08-24T18:44:38.657Z,101670.47
2022-08-24T18:47:25.417Z,101673.78
2022-08-24T18:50:12.210Z,101669.25
2022-08-24T18:53:03.458Z,101672.44
2022-08-24T18:55:50.041Z,101676.13
2022-08-24T18:58:36.962Z,101672.75
2022-08-24T19:01:25.472Z,101676.41
2022-08-24T19:04:14.224Z,101685.56
2022-08-24T19:07:00.901Z,101682.66
2022-08-24T19:09:49.051Z,101687.53
2022-08-24T19:12:39.423Z,101689.63
2022-08-24T19:15:39.341Z,101688.72
2022-08-24T19:18:28.664Z,101684.75
2022-08-24T19:21:27.769Z,101690.88
2022-08-24T19:24:26.520Z,101687.63
2022-08-24T19:27:15.314Z,101685.28
2022-08-24T19:30:04.860Z,101693.66
2022-08-24T19:32:59.409Z,101693.91
2022-08-24T19:35:46.988Z,101695.16
2022-08-24T19:38:34.499Z,101694.81
2022-08-24T19:41:22.112Z,101698.72
2022-08-24T19:44:28.109Z,101686.84
2022-08-24T19:47:16.727Z,101696.19
2022-08-24T19:50:08.652Z,101681.63
2022-08-24T19:52:58.829Z,101694.72
2022-08-24T19:55:50.098Z,101689.78
2022-08-24T19:58:44.740Z,101694.47
2022-08-24T20:01:37.738Z,101696.81
2022-08-24T20:04:25.109Z,101694.13
2022-08-24T20:07:17.664Z,101699.69
2022-08-24T20:10:04.683Z,101699.16
2022-08-24T20:13:00.334Z,101692.38
2022-08-24T20:15:47.044Z,101691.69
2022-08-24T20:18:36.440Z,101698.22
2022-08-24T20:21:26.132Z,101693.03
2022-08-24T20:24:16.610Z,101693.28
2022-08-24T20:27:03.520Z,101703.25
2022-08-24T20:29:50.212Z,101694.47
2022-08-24T20:32:37.195Z,101696.22
2022-08-24T20:35:29.590Z,101695.00
2022-08-24T20:38:19.396Z,101690.69
2022-08-24T20:41:06.370Z,101705.06
2022-08-24T20:43:52.967Z,101693.44
2022-08-24T20:46:41.018Z,101702.44
2022-08-24T20:49:34.229Z,101707.41
2022-08-24T20:52:22.705Z,101697.75
2022-08-24T20:55:10.758Z,101695.16
2022-08-24T20:58:00.800Z,101686.22
2022-08-24T21:00:47.753Z,101693.44
2022-08-24T21:03:35.179Z,101692.56
2022-08-24T21:06:21.617Z,101695.25
2022-08-24T21:09:12.725Z,101691.25
2022-08-24T21:12:01.057Z,101696.91
2022-08-24T21:14:47.748Z,101698.19
2022-08-24T21:17:37.673Z,101695.88
2022-08-24T21:20:25.679Z,101701.50
2022-08-24T21:23:12.941Z,101700.97
2022-08-24T21:26:03.160Z,101696.94
2022-08-24T21:28:49.997Z,101695.44
2022-08-24T21:31:37.363Z,101704.38
2022-08-24T21:34:41.417Z,101703.66
2022-08-24T21:37:28.213Z,101705.72
2022-08-24T21:40:15.062Z,101699.81
2022-08-24T21:43:03.665Z,101699.66
2022-08-24T21:46:01.552Z,101698.34
2022-08-24T21:48:48.386Z,101704.47
2022-08-24T21:51:35.457Z,101707.75
2022-08-24T21:54:22.331Z,101703.41
2022-08-24T21:57:09.346Z,101716.03
2022-08-24T21:59:57.218Z,101715.34
2022-08-24T22:02:44.218Z,101710.13
2022-08-24T22:05:31.463Z,101711.13
2022-08-24T22:08:18.147Z,101711.13
2022-08-24T22:11:04.957Z,101708.53
2022-08-24T22:13:52.114Z,101709.47
2022-08-24T22:16:40.231Z,101707.09
2022-08-24T22:19:26.905Z,101697.25
2022-08-24T22:22:13.795Z,101702.94
2022-08-24T22:25:00.875Z,101701.34
2022-08-24T22:27:48.214Z,101693.44
2022-08-24T22:30:35.100Z,101691.63
2022-08-24T22:33:23.887Z,101690.88
2022-08-24T22:36:11.812Z,101699.09
2022-08-24T22:38:59.904Z,101680.91
2022-08-24T22:41:46.390Z,101700.19
2022-08-24T22:44:34.233Z,101692.78
2022-08-24T22:47:20.772Z,101695.84
2022-08-24T22:50:10.971Z,101691.28
2022-08-24T22:52:57.690Z,101696.06
2022-08-24T22:55:44.917Z,101690.94
2022-08-24T22:58:31.698Z,101699.06
2022-08-24T23:01:23.240Z,101692.81
2022-08-24T23:04:13.346Z,101692.19
2022-08-24T23:07:01.512Z,101681.59
2022-08-24T23:09:48.555Z,101677.66
2022-08-24T23:12:35.192Z,101679.94
2022-08-24T23:15:21.646Z,101682.69
2022-08-24T23:18:28.586Z,101684.59
2022-08-24T23:21:14.952Z,101677.75
2022-08-24T23:24:03.319Z,101677.03
2022-08-24T23:26:50.013Z,101684.06
2022-08-24T23:29:37.430Z,101676.09
2022-08-24T23:32:24.467Z,101680.34
2022-08-24T23:35:11.001Z,101675.69
2022-08-24T23:37:57.720Z,101677.03
2022-08-24T23:40:45.495Z,101671.03
2022-08-24T23:43:32.173Z,101669.44
2022-08-24T23:46:18.965Z,101676.03
2022-08-24T23:49:08.712Z,101669.00
2022-08-24T23:51:55.328Z,101665.53
2022-08-24T23:54:42.071Z,101657.50
2022-08-24T23:57:30.351Z,101668.13
